sensor_id;sensor_type;location;lat;lon;timestamp;temperature;humidity
24802;DHT22;12898;50.520;12.152;2024-02-15T00:02:20;8.00;99.90
24802;DHT22;12898;50.520;12.152;2024-02-15T00:04:46;8.00;99.90
24802;DHT22;12898;50.520;12.152;2024-02-15T00:07:12;8.00;99.90
24802;DHT22;12898;50.520;12.152;2024-02-15T00:09:38;8.00;99.90
24802;DHT22;12898;50.520;12.152;2024-02-15T00:12:04;8.00;99.90
24802;DHT22;12898;50.520;12.152;2024-02-15T00:14:30;8.00;99.90
24802;DHT22;12898;50.520;12.152;2024-02-15T00:16:57;8.00;99.90
24802;DHT22;12898;50.520;12.152;2024-02-15T00:19:23;8.00;99.90
24802;DHT22;12898;50.520;12.152;2024-02-15T00:21:49;8.00;99.90
24802;DHT22;12898;50.520;12.152;2024-02-15T00:24:15;8.00;99.90
24802;DHT22;12898;50.520;12.152;2024-02-15T00:26:41;7.90;99.90
24802;DHT22;12898;50.520;12.152;2024-02-15T00:29:08;8.00;99.90
24802;DHT22;12898;50.520;12.152;2024-02-15T00:31:35;8.00;99.90
24802;DHT22;12898;50.520;12.152;2024-02-15T00:34:01;8.00;99.90
24802;DHT22;12898;50.520;12.152;2024-02-15T00:36:29;8.00;99.90
24802;DHT22;12898;50.520;12.152;2024-02-15T00:38:55;8.00;99.90
24802;DHT22;12898;50.520;12.152;2024-02-15T00:41:21;8.10;99.90
24802;DHT22;12898;50.520;12.152;2024-02-15T00:43:47;8.10;99.90
24802;DHT22;12898;50.520;12.152;2024-02-15T00:46:13;8.00;99.90
24802;DHT22;12898;50.520;12.152;2024-02-15T00:48:39;8.00;99.90
24802;DHT22;12898;50.520;12.152;2024-02-15T00:51:06;8.00;99.90
24802;DHT22;12898;50.520;12.152;2024-02-15T00:53:33;8.00;99.90
24802;DHT22;12898;50.520;12.152;2024-02-15T00:55:58;8.00;99.90
24802;DHT22;12898;50.520;12.152;2024-02-15T00:58:24;8.10;99.90
24802;DHT22;12898;50.520;12.152;2024-02-15T01:00:52;8.00;99.90
24802;DHT22;12898;50.520;12.152;2024-02-15T01:03:19;8.10;99.90
24802;DHT22;12898;50.520;12.152;2024-02-15T01:05:45;8.10;99.90
24802;DHT22;12898;50.520;12.152;2024-02-15T01:08:11;8.10;99.90
24802;DHT22;12898;50.520;12.152;2024-02-15T01:10:37;8.10;99.90
24802;DHT22;12898;50.520;12.152;2024-02-15T01:13:03;8.10;99.90
24802;DHT22;12898;50.520;12.152;2024-02-15T01:15:29;8.10;99.90
24802;DHT22;12898;50.520;12.152;2024-02-15T01:17:55;8.10;99.90
24802;DHT22;12898;50.520;12.152;2024-02-15T01:20:21;8.10;99.90
24802;DHT22;12898;50.520;12.152;2024-02-15T01:22:47;8.10;99.90
24802;DHT22;12898;50.520;12.152;2024-02-15T01:25:12;8.10;99.90
24802;DHT22;12898;50.520;12.152;2024-02-15T01:27:41;8.10;99.90
24802;DHT22;12898;50.520;12.152;2024-02-15T01:30:07;8.10;99.90
24802;DHT22;12898;50.520;12.152;2024-02-15T01:32:34;8.20;99.90
24802;DHT22;12898;50.520;12.152;2024-02-15T01:35:00;8.20;99.90
24802;DHT22;12898;50.520;12.152;2024-02-15T01:37:25;8.20;99.90
24802;DHT22;12898;50.520;12.152;2024-02-15T01:39:51;8.20;99.90
24802;DHT22;12898;50.520;12.152;2024-02-15T01:42:17;8.20;99.90
24802;DHT22;12898;50.520;12.152;2024-02-15T01:44:44;8.10;99.90
24802;DHT22;12898;50.520;12.152;2024-02-15T01:47:13;8.10;99.90
24802;DHT22;12898;50.520;12.152;2024-02-15T01:49:39;8.10;99.90
24802;DHT22;12898;50.520;12.152;2024-02-15T01:52:06;8.20;99.90
24802;DHT22;12898;50.520;12.152;2024-02-15T01:54:36;8.10;99.90
24802;DHT22;12898;50.520;12.152;2024-02-15T01:57:04;8.20;99.90
24802;DHT22;12898;50.520;12.152;2024-02-15T01:59:30;8.20;99.90
24802;DHT22;12898;50.520;12.152;2024-02-15T02:01:57;8.20;99.90
24802;DHT22;12898;50.520;12.152;2024-02-15T02:04:23;8.20;99.90
24802;DHT22;12898;50.520;12.152;2024-02-15T02:06:49;8.20;99.90
24802;DHT22;12898;50.520;12.152;2024-02-15T02:09:15;8.20;99.90
24802;DHT22;12898;50.520;12.152;2024-02-15T02:11:44;8.20;99.90
24802;DHT22;12898;50.520;12.152;2024-02-15T02:14:10;8.20;99.90
24802;DHT22;12898;50.520;12.152;2024-02-15T02:16:37;8.20;99.90
24802;DHT22;12898;50.520;12.152;2024-02-15T02:19:05;8.30;99.90
24802;DHT22;12898;50.520;12.152;2024-02-15T02:21:35;8.30;99.90
24802;DHT22;12898;50.520;12.152;2024-02-15T02:24:11;8.30;99.90
24802;DHT22;12898;50.520;12.152;2024-02-15T02:26:39;8.20;99.90
24802;DHT22;12898;50.520;12.152;2024-02-15T02:29:05;8.30;99.90
24802;DHT22;12898;50.520;12.152;2024-02-15T02:31:35;8.30;99.90
24802;DHT22;12898;50.520;12.152;2024-02-15T02:34:01;8.30;99.90
24802;DHT22;12898;50.520;12.152;2024-02-15T02:36:28;8.30;99.90
24802;DHT22;12898;50.520;12.152;2024-02-15T02:38:55;8.20;99.90
24802;DHT22;12898;50.520;12.152;2024-02-15T02:41:25;8.30;99.90
24802;DHT22;12898;50.520;12.152;2024-02-15T02:43:57;8.30;99.90
24802;DHT22;12898;50.520;12.152;2024-02-15T02:46:23;8.30;99.90
24802;DHT22;12898;50.520;12.152;2024-02-15T02:48:48;8.30;99.90
24802;DHT22;12898;50.520;12.152;2024-02-15T02:51:15;8.30;99.90
24802;DHT22;12898;50.520;12.152;2024-02-15T02:53:41;8.30;99.90
24802;DHT22;12898;50.520;12.152;2024-02-15T02:56:07;8.30;99.90
24802;DHT22;12898;50.520;12.152;2024-02-15T02:58:34;8.30;99.90
24802;DHT22;12898;50.520;12.152;2024-02-15T03:01:01;8.30;99.90
24802;DHT22;12898;50.520;12.152;2024-02-15T03:03:27;8.30;99.90
24802;DHT22;12898;50.520;12.152;2024-02-15T03:05:53;8.30;99.90
24802;DHT22;12898;50.520;12.152;2024-02-15T03:08:19;8.30;99.90
24802;DHT22;12898;50.520;12.152;2024-02-15T03:10:46;8.30;99.90
24802;DHT22;12898;50.520;12.152;2024-02-15T03:13:12;8.30;99.90
24802;DHT22;12898;50.520;12.152;2024-02-15T03:15:38;8.20;99.90
24802;DHT22;12898;50.520;12.152;2024-02-15T03:18:04;8.20;99.90
24802;DHT22;12898;50.520;12.152;2024-02-15T03:20:34;8.20;99.90
24802;DHT22;12898;50.520;12.152;2024-02-15T03:23:02;8.30;99.90
24802;DHT22;12898;50.520;12.152;2024-02-15T03:25:29;8.30;99.90
24802;DHT22;12898;50.520;12.152;2024-02-15T03:27:56;8.30;99.90
24802;DHT22;12898;50.520;12.152;2024-02-15T03:30:28;8.30;99.90
24802;DHT22;12898;50.520;12.152;2024-02-15T03:32:57;8.30;99.90
24802;DHT22;12898;50.520;12.152;2024-02-15T03:35:25;8.30;99.90
24802;DHT22;12898;50.520;12.152;2024-02-15T03:37:54;8.20;99.90
24802;DHT22;12898;50.520;12.152;2024-02-15T03:40:20;8.30;99.90
24802;DHT22;12898;50.520;12.152;2024-02-15T03:42:47;8.30;99.90
24802;DHT22;12898;50.520;12.152;2024-02-15T03:45:15;8.30;99.90
24802;DHT22;12898;50.520;12.152;2024-02-15T03:47:41;8.30;99.90
24802;DHT22;12898;50.520;12.152;2024-02-15T03:50:08;8.30;99.90
24802;DHT22;12898;50.520;12.152;2024-02-15T03:52:40;8.30;99.90
24802;DHT22;12898;50.520;12.152;2024-02-15T03:55:06;8.30;99.90
24802;DHT22;12898;50.520;12.152;2024-02-15T03:57:33;8.30;99.90
24802;DHT22;12898;50.520;12.152;2024-02-15T03:59:59;8.30;99.90
24802;DHT22;12898;50.520;12.152;2024-02-15T04:02:25;8.30;99.90
24802;DHT22;12898;50.520;12.152;2024-02-15T04:04:56;8.30;99.90
24802;DHT22;12898;50.520;12.152;2024-02-15T04:07:22;8.40;99.90
24802;DHT22;12898;50.520;12.152;2024-02-15T04:09:50;8.40;99.90
24802;DHT22;12898;50.520;12.152;2024-02-15T04:12:16;8.40;99.90
24802;DHT22;12898;50.520;12.152;2024-02-15T04:14:43;8.40;99.90
24802;DHT22;12898;50.520;12.152;2024-02-15T04:17:12;8.40;99.90
24802;DHT22;12898;50.520;12.152;2024-02-15T04:19:45;8.40;99.90
24802;DHT22;12898;50.520;12.152;2024-02-15T04:22:16;8.40;99.90
24802;DHT22;12898;50.520;12.152;2024-02-15T04:24:43;8.50;99.90
24802;DHT22;12898;50.520;12.152;2024-02-15T04:27:10;8.50;99.90
24802;DHT22;12898;50.520;12.152;2024-02-15T04:29:37;8.50;99.90
24802;DHT22;12898;50.520;12.152;2024-02-15T04:32:11;8.50;99.90
24802;DHT22;12898;50.520;12.152;2024-02-15T04:34:39;8.50;99.90
24802;DHT22;12898;50.520;12.152;2024-02-15T04:37:05;8.50;99.90
24802;DHT22;12898;50.520;12.152;2024-02-15T04:39:37;8.50;99.90
24802;DHT22;12898;50.520;12.152;2024-02-15T04:42:04;8.50;99.90
24802;DHT22;12898;50.520;12.152;2024-02-15T04:44:31;8.50;99.90
24802;DHT22;12898;50.520;12.152;2024-02-15T04:47:00;8.50;99.90
24802;DHT22;12898;50.520;12.152;2024-02-15T04:49:28;8.50;99.90
24802;DHT22;12898;50.520;12.152;2024-02-15T04:51:54;8.40;99.90
24802;DHT22;12898;50.520;12.152;2024-02-15T04:54:22;8.50;99.90
24802;DHT22;12898;50.520;12.152;2024-02-15T04:56:48;8.50;99.90
24802;DHT22;12898;50.520;12.152;2024-02-15T04:59:18;8.50;99.90
24802;DHT22;12898;50.520;12.152;2024-02-15T05:01:45;8.50;99.90
24802;DHT22;12898;50.520;12.152;2024-02-15T05:04:11;8.50;99.90
24802;DHT22;12898;50.520;12.152;2024-02-15T05:06:37;8.50;99.90
24802;DHT22;12898;50.520;12.152;2024-02-15T05:09:04;8.50;99.90
24802;DHT22;12898;50.520;12.152;2024-02-15T05:11:39;8.50;99.90
24802;DHT22;12898;50.520;12.152;2024-02-15T05:14:12;8.50;99.90
24802;DHT22;12898;50.520;12.152;2024-02-15T05:16:49;8.50;99.90
24802;DHT22;12898;50.520;12.152;2024-02-15T05:19:15;8.60;99.90
24802;DHT22;12898;50.520;12.152;2024-02-15T05:21:42;8.60;99.90
24802;DHT22;12898;50.520;12.152;2024-02-15T05:24:15;8.60;99.90
24802;DHT22;12898;50.520;12.152;2024-02-15T05:26:43;8.60;99.90
24802;DHT22;12898;50.520;12.152;2024-02-15T05:29:12;8.60;99.90
24802;DHT22;12898;50.520;12.152;2024-02-15T05:31:38;8.60;99.90
24802;DHT22;12898;50.520;12.152;2024-02-15T05:34:06;8.70;99.90
24802;DHT22;12898;50.520;12.152;2024-02-15T05:36:33;8.70;99.90
24802;DHT22;12898;50.520;12.152;2024-02-15T05:39:00;8.70;99.90
24802;DHT22;12898;50.520;12.152;2024-02-15T05:41:28;8.70;99.90
24802;DHT22;12898;50.520;12.152;2024-02-15T05:43:53;8.70;99.90
24802;DHT22;12898;50.520;12.152;2024-02-15T05:46:19;8.70;99.90
24802;DHT22;12898;50.520;12.152;2024-02-15T05:48:48;8.70;99.90
24802;DHT22;12898;50.520;12.152;2024-02-15T05:51:14;8.70;99.90
24802;DHT22;12898;50.520;12.152;2024-02-15T05:53:41;8.70;99.90
24802;DHT22;12898;50.520;12.152;2024-02-15T05:56:08;8.70;99.90
24802;DHT22;12898;50.520;12.152;2024-02-15T05:58:34;8.70;99.90
24802;DHT22;12898;50.520;12.152;2024-02-15T06:01:02;8.70;99.90
24802;DHT22;12898;50.520;12.152;2024-02-15T06:03:31;8.70;99.90
24802;DHT22;12898;50.520;12.152;2024-02-15T06:05:59;8.70;99.90
24802;DHT22;12898;50.520;12.152;2024-02-15T06:08:28;8.70;99.90
24802;DHT22;12898;50.520;12.152;2024-02-15T06:10:55;8.70;99.90
24802;DHT22;12898;50.520;12.152;2024-02-15T06:13:22;8.80;99.90
24802;DHT22;12898;50.520;12.152;2024-02-15T06:15:49;8.80;99.90
24802;DHT22;12898;50.520;12.152;2024-02-15T06:18:21;8.70;99.90
24802;DHT22;12898;50.520;12.152;2024-02-15T06:20:50;8.80;99.90
24802;DHT22;12898;50.520;12.152;2024-02-15T06:23:17;8.80;99.90
24802;DHT22;12898;50.520;12.152;2024-02-15T06:25:44;8.80;99.90
24802;DHT22;12898;50.520;12.152;2024-02-15T06:28:16;8.80;99.90
24802;DHT22;12898;50.520;12.152;2024-02-15T06:31:05;8.80;99.90
24802;DHT22;12898;50.520;12.152;2024-02-15T06:33:53;8.90;99.90
24802;DHT22;12898;50.520;12.152;2024-02-15T06:36:50;8.90;99.90
24802;DHT22;12898;50.520;12.152;2024-02-15T06:39:36;8.90;99.90
24802;DHT22;12898;50.520;12.152;2024-02-15T06:42:08;8.90;99.90
24802;DHT22;12898;50.520;12.152;2024-02-15T06:44:37;8.90;99.90
24802;DHT22;12898;50.520;12.152;2024-02-15T06:47:06;8.80;99.90
24802;DHT22;12898;50.520;12.152;2024-02-15T06:49:32;8.90;99.90
24802;DHT22;12898;50.520;12.152;2024-02-15T06:51:59;8.90;99.90
24802;DHT22;12898;50.520;12.152;2024-02-15T06:54:27;8.90;99.90
24802;DHT22;12898;50.520;12.152;2024-02-15T06:56:53;9.00;99.90
24802;DHT22;12898;50.520;12.152;2024-02-15T06:59:20;9.00;99.90
24802;DHT22;12898;50.520;12.152;2024-02-15T07:01:50;9.00;99.90
24802;DHT22;12898;50.520;12.152;2024-02-15T07:04:18;9.00;99.90
24802;DHT22;12898;50.520;12.152;2024-02-15T07:06:46;9.00;99.90
24802;DHT22;12898;50.520;12.152;2024-02-15T07:09:14;9.10;99.90
24802;DHT22;12898;50.520;12.152;2024-02-15T07:11:44;9.10;99.90
24802;DHT22;12898;50.520;12.152;2024-02-15T07:14:12;9.20;99.90
24802;DHT22;12898;50.520;12.152;2024-02-15T07:16:38;9.20;99.90
24802;DHT22;12898;50.520;12.152;2024-02-15T07:19:04;9.20;99.90
24802;DHT22;12898;50.520;12.152;2024-02-15T07:21:30;9.30;99.90
24802;DHT22;12898;50.520;12.152;2024-02-15T07:23:57;9.40;99.90
24802;DHT22;12898;50.520;12.152;2024-02-15T07:26:24;9.50;99.90
24802;DHT22;12898;50.520;12.152;2024-02-15T07:28:54;9.50;99.90
24802;DHT22;12898;50.520;12.152;2024-02-15T07:31:20;9.60;99.90
24802;DHT22;12898;50.520;12.152;2024-02-15T07:33:48;9.60;99.90
24802;DHT22;12898;50.520;12.152;2024-02-15T07:36:18;9.70;99.90
24802;DHT22;12898;50.520;12.152;2024-02-15T07:38:47;9.70;99.90
24802;DHT22;12898;50.520;12.152;2024-02-15T07:41:15;9.70;99.90
24802;DHT22;12898;50.520;12.152;2024-02-15T07:43:43;9.70;99.90
24802;DHT22;12898;50.520;12.152;2024-02-15T07:46:12;9.70;99.90
24802;DHT22;12898;50.520;12.152;2024-02-15T07:48:39;9.80;99.90
24802;DHT22;12898;50.520;12.152;2024-02-15T07:51:09;9.80;99.90
24802;DHT22;12898;50.520;12.152;2024-02-15T07:53:36;9.80;99.90
24802;DHT22;12898;50.520;12.152;2024-02-15T07:56:02;9.90;99.90
24802;DHT22;12898;50.520;12.152;2024-02-15T07:58:28;9.90;99.90
24802;DHT22;12898;50.520;12.152;2024-02-15T08:00:54;10.00;99.90
24802;DHT22;12898;50.520;12.152;2024-02-15T08:03:20;10.00;99.90
24802;DHT22;12898;50.520;12.152;2024-02-15T08:05:45;10.00;99.90
24802;DHT22;12898;50.520;12.152;2024-02-15T08:08:12;10.00;99.90
24802;DHT22;12898;50.520;12.152;2024-02-15T08:10:38;10.00;99.90
24802;DHT22;12898;50.520;12.152;2024-02-15T08:13:05;10.00;99.90
24802;DHT22;12898;50.520;12.152;2024-02-15T08:15:30;10.00;99.90
24802;DHT22;12898;50.520;12.152;2024-02-15T08:17:57;10.00;99.90
24802;DHT22;12898;50.520;12.152;2024-02-15T08:20:23;10.10;99.90
24802;DHT22;12898;50.520;12.152;2024-02-15T08:22:49;10.20;99.90
24802;DHT22;12898;50.520;12.152;2024-02-15T08:25:15;10.30;99.90
24802;DHT22;12898;50.520;12.152;2024-02-15T08:27:42;10.30;99.90
24802;DHT22;12898;50.520;12.152;2024-02-15T08:30:13;10.40;99.90
24802;DHT22;12898;50.520;12.152;2024-02-15T08:32:42;10.40;99.90
24802;DHT22;12898;50.520;12.152;2024-02-15T08:35:09;10.40;99.90
24802;DHT22;12898;50.520;12.152;2024-02-15T08:37:36;10.40;99.90
24802;DHT22;12898;50.520;12.152;2024-02-15T08:40:08;10.40;99.90
24802;DHT22;12898;50.520;12.152;2024-02-15T08:42:43;10.40;99.90
24802;DHT22;12898;50.520;12.152;2024-02-15T08:45:10;10.40;99.90
24802;DHT22;12898;50.520;12.152;2024-02-15T08:47:37;10.40;99.90
24802;DHT22;12898;50.520;12.152;2024-02-15T08:50:04;10.40;99.90
24802;DHT22;12898;50.520;12.152;2024-02-15T08:52:31;10.50;99.90
24802;DHT22;12898;50.520;12.152;2024-02-15T08:54:57;10.50;99.90
24802;DHT22;12898;50.520;12.152;2024-02-15T08:57:24;10.50;99.90
24802;DHT22;12898;50.520;12.152;2024-02-15T08:59:52;10.50;99.90
24802;DHT22;12898;50.520;12.152;2024-02-15T09:02:20;10.60;99.90
24802;DHT22;12898;50.520;12.152;2024-02-15T09:04:47;10.60;99.90
24802;DHT22;12898;50.520;12.152;2024-02-15T09:07:12;10.60;99.90
24802;DHT22;12898;50.520;12.152;2024-02-15T09:09:38;10.60;99.90
24802;DHT22;12898;50.520;12.152;2024-02-15T09:12:04;10.70;99.90
24802;DHT22;12898;50.520;12.152;2024-02-15T09:14:32;10.70;99.90
24802;DHT22;12898;50.520;12.152;2024-02-15T09:16:59;10.80;99.90
24802;DHT22;12898;50.520;12.152;2024-02-15T09:19:26;10.90;99.90
24802;DHT22;12898;50.520;12.152;2024-02-15T09:21:52;11.00;99.90
24802;DHT22;12898;50.520;12.152;2024-02-15T09:24:19;11.10;99.90
24802;DHT22;12898;50.520;12.152;2024-02-15T09:26:44;11.10;99.90
24802;DHT22;12898;50.520;12.152;2024-02-15T09:29:10;11.10;99.90
24802;DHT22;12898;50.520;12.152;2024-02-15T09:31:37;11.10;99.90
24802;DHT22;12898;50.520;12.152;2024-02-15T09:34:05;11.10;99.90
24802;DHT22;12898;50.520;12.152;2024-02-15T09:36:35;11.10;99.90
24802;DHT22;12898;50.520;12.152;2024-02-15T09:39:03;11.10;99.90
24802;DHT22;12898;50.520;12.152;2024-02-15T09:41:30;11.10;99.90
24802;DHT22;12898;50.520;12.152;2024-02-15T09:43:57;11.10;99.90
24802;DHT22;12898;50.520;12.152;2024-02-15T09:46:23;11.10;99.90
24802;DHT22;12898;50.520;12.152;2024-02-15T09:48:51;11.10;99.90
24802;DHT22;12898;50.520;12.152;2024-02-15T09:51:20;11.10;99.90
24802;DHT22;12898;50.520;12.152;2024-02-15T09:53:47;11.20;99.90
24802;DHT22;12898;50.520;12.152;2024-02-15T09:56:14;11.30;99.90
24802;DHT22;12898;50.520;12.152;2024-02-15T09:58:41;11.40;99.90
24802;DHT22;12898;50.520;12.152;2024-02-15T10:01:09;11.40;99.90
24802;DHT22;12898;50.520;12.152;2024-02-15T10:03:39;11.40;99.90
24802;DHT22;12898;50.520;12.152;2024-02-15T10:06:07;11.50;99.90
24802;DHT22;12898;50.520;12.152;2024-02-15T10:08:33;11.50;99.90
24802;DHT22;12898;50.520;12.152;2024-02-15T10:11:06;11.60;99.90
24802;DHT22;12898;50.520;12.152;2024-02-15T10:13:33;11.50;99.90
24802;DHT22;12898;50.520;12.152;2024-02-15T10:15:59;11.50;99.90
24802;DHT22;12898;50.520;12.152;2024-02-15T10:18:39;11.50;99.90
24802;DHT22;12898;50.520;12.152;2024-02-15T10:21:05;11.60;99.90
24802;DHT22;12898;50.520;12.152;2024-02-15T10:23:30;11.70;99.90
24802;DHT22;12898;50.520;12.152;2024-02-15T10:25:56;11.80;99.90
24802;DHT22;12898;50.520;12.152;2024-02-15T10:28:23;11.80;99.90
24802;DHT22;12898;50.520;12.152;2024-02-15T10:30:49;11.90;99.90
24802;DHT22;12898;50.520;12.152;2024-02-15T10:33:19;12.00;99.90
24802;DHT22;12898;50.520;12.152;2024-02-15T10:35:46;12.00;99.90
24802;DHT22;12898;50.520;12.152;2024-02-15T10:38:12;12.00;99.90
24802;DHT22;12898;50.520;12.152;2024-02-15T10:40:40;12.10;99.90
24802;DHT22;12898;50.520;12.152;2024-02-15T10:43:08;12.20;99.90
24802;DHT22;12898;50.520;12.152;2024-02-15T10:45:38;12.30;99.90
24802;DHT22;12898;50.520;12.152;2024-02-15T10:48:09;12.40;99.90
24802;DHT22;12898;50.520;12.152;2024-02-15T10:50:35;12.60;99.90
24802;DHT22;12898;50.520;12.152;2024-02-15T10:53:12;12.70;99.90
24802;DHT22;12898;50.520;12.152;2024-02-15T10:56:26;12.80;99.90
24802;DHT22;12898;50.520;12.152;2024-02-15T10:59:04;13.00;99.90
24802;DHT22;12898;50.520;12.152;2024-02-15T11:01:40;13.10;99.90
24802;DHT22;12898;50.520;12.152;2024-02-15T11:04:07;13.10;99.90
24802;DHT22;12898;50.520;12.152;2024-02-15T11:06:38;13.20;99.90
24802;DHT22;12898;50.520;12.152;2024-02-15T11:09:09;13.10;99.90
24802;DHT22;12898;50.520;12.152;2024-02-15T11:11:37;13.10;99.90
24802;DHT22;12898;50.520;12.152;2024-02-15T11:17:00;13.10;99.90
24802;DHT22;12898;50.520;12.152;2024-02-15T11:21:58;13.00;99.90
24802;DHT22;12898;50.520;12.152;2024-02-15T11:24:27;12.90;99.90
24802;DHT22;12898;50.520;12.152;2024-02-15T11:26:59;12.90;99.90
24802;DHT22;12898;50.520;12.152;2024-02-15T11:29:50;12.90;99.90
24802;DHT22;12898;50.520;12.152;2024-02-15T11:35:19;13.00;99.90
24802;DHT22;12898;50.520;12.152;2024-02-15T11:43:09;13.00;99.90
24802;DHT22;12898;50.520;12.152;2024-02-15T11:45:36;13.10;99.90
24802;DHT22;12898;50.520;12.152;2024-02-15T11:48:10;13.20;99.90
24802;DHT22;12898;50.520;12.152;2024-02-15T11:50:37;13.30;99.90
24802;DHT22;12898;50.520;12.152;2024-02-15T11:53:06;13.30;99.90
24802;DHT22;12898;50.520;12.152;2024-02-15T11:55:36;13.40;99.90
24802;DHT22;12898;50.520;12.152;2024-02-15T11:58:06;13.40;99.90
24802;DHT22;12898;50.520;12.152;2024-02-15T12:00:39;13.40;99.90
24802;DHT22;12898;50.520;12.152;2024-02-15T12:03:23;13.40;99.90
24802;DHT22;12898;50.520;12.152;2024-02-15T12:06:08;13.40;99.90
24802;DHT22;12898;50.520;12.152;2024-02-15T12:08:54;13.40;99.90
24802;DHT22;12898;50.520;12.152;2024-02-15T12:11:39;13.40;99.90
24802;DHT22;12898;50.520;12.152;2024-02-15T12:14:24;13.40;99.90
24802;DHT22;12898;50.520;12.152;2024-02-15T12:17:10;13.40;99.90
24802;DHT22;12898;50.520;12.152;2024-02-15T12:19:57;13.50;99.90
24802;DHT22;12898;50.520;12.152;2024-02-15T12:22:28;13.60;99.90
24802;DHT22;12898;50.520;12.152;2024-02-15T12:24:59;13.60;99.90
24802;DHT22;12898;50.520;12.152;2024-02-15T12:27:27;13.60;99.90
24802;DHT22;12898;50.520;12.152;2024-02-15T12:29:54;13.80;99.90
24802;DHT22;12898;50.520;12.152;2024-02-15T12:32:27;13.90;99.90
24802;DHT22;12898;50.520;12.152;2024-02-15T12:35:08;14.00;99.90
24802;DHT22;12898;50.520;12.152;2024-02-15T12:37:48;13.90;99.90
24802;DHT22;12898;50.520;12.152;2024-02-15T12:40:37;13.90;99.90
24802;DHT22;12898;50.520;12.152;2024-02-15T12:43:07;13.90;99.90
24802;DHT22;12898;50.520;12.152;2024-02-15T12:45:38;14.00;99.90
24802;DHT22;12898;50.520;12.152;2024-02-15T12:48:07;13.90;99.90
24802;DHT22;12898;50.520;12.152;2024-02-15T12:50:34;13.80;99.90
24802;DHT22;12898;50.520;12.152;2024-02-15T12:53:00;13.80;99.90
24802;DHT22;12898;50.520;12.152;2024-02-15T12:55:32;13.70;99.90
24802;DHT22;12898;50.520;12.152;2024-02-15T12:58:03;13.70;99.90
24802;DHT22;12898;50.520;12.152;2024-02-15T13:00:34;13.80;99.90
24802;DHT22;12898;50.520;12.152;2024-02-15T13:03:06;13.80;99.90
24802;DHT22;12898;50.520;12.152;2024-02-15T13:05:37;13.80;99.90
24802;DHT22;12898;50.520;12.152;2024-02-15T13:08:04;13.80;99.90
24802;DHT22;12898;50.520;12.152;2024-02-15T13:10:35;13.70;99.90
24802;DHT22;12898;50.520;12.152;2024-02-15T13:13:01;13.70;99.90
24802;DHT22;12898;50.520;12.152;2024-02-15T13:15:27;13.70;99.90
24802;DHT22;12898;50.520;12.152;2024-02-15T13:17:59;13.60;99.90
24802;DHT22;12898;50.520;12.152;2024-02-15T13:20:25;13.60;99.90
24802;DHT22;12898;50.520;12.152;2024-02-15T13:22:59;13.50;99.90
24802;DHT22;12898;50.520;12.152;2024-02-15T13:25:36;13.60;99.90
24802;DHT22;12898;50.520;12.152;2024-02-15T13:28:05;13.60;99.90
24802;DHT22;12898;50.520;12.152;2024-02-15T13:30:32;13.60;99.90
24802;DHT22;12898;50.520;12.152;2024-02-15T13:32:57;13.60;99.90
24802;DHT22;12898;50.520;12.152;2024-02-15T13:35:23;13.50;99.90
24802;DHT22;12898;50.520;12.152;2024-02-15T13:37:50;13.50;99.90
24802;DHT22;12898;50.520;12.152;2024-02-15T13:40:25;13.40;99.90
24802;DHT22;12898;50.520;12.152;2024-02-15T13:43:00;13.40;99.90
24802;DHT22;12898;50.520;12.152;2024-02-15T13:45:31;13.50;99.90
24802;DHT22;12898;50.520;12.152;2024-02-15T13:48:01;13.50;99.90
24802;DHT22;12898;50.520;12.152;2024-02-15T13:50:29;13.60;99.90
24802;DHT22;12898;50.520;12.152;2024-02-15T13:52:59;13.70;99.90
24802;DHT22;12898;50.520;12.152;2024-02-15T13:55:25;13.70;99.90
24802;DHT22;12898;50.520;12.152;2024-02-15T13:57:52;13.80;99.90
24802;DHT22;12898;50.520;12.152;2024-02-15T14:00:19;13.80;99.90
24802;DHT22;12898;50.520;12.152;2024-02-15T14:02:52;13.70;99.90
24802;DHT22;12898;50.520;12.152;2024-02-15T14:05:19;13.70;99.90
24802;DHT22;12898;50.520;12.152;2024-02-15T14:07:56;13.70;99.90
24802;DHT22;12898;50.520;12.152;2024-02-15T14:10:33;13.80;99.90
24802;DHT22;12898;50.520;12.152;2024-02-15T14:13:00;13.90;99.90
24802;DHT22;12898;50.520;12.152;2024-02-15T14:15:47;13.90;99.90
24802;DHT22;12898;50.520;12.152;2024-02-15T14:18:14;13.90;99.90
24802;DHT22;12898;50.520;12.152;2024-02-15T14:20:40;13.90;99.90
24802;DHT22;12898;50.520;12.152;2024-02-15T14:23:08;13.90;99.90
24802;DHT22;12898;50.520;12.152;2024-02-15T14:25:39;13.90;99.90
24802;DHT22;12898;50.520;12.152;2024-02-15T14:28:05;14.00;99.90
24802;DHT22;12898;50.520;12.152;2024-02-15T14:30:35;14.00;99.90
24802;DHT22;12898;50.520;12.152;2024-02-15T14:33:19;14.00;99.90
24802;DHT22;12898;50.520;12.152;2024-02-15T14:35:48;14.00;99.90
24802;DHT22;12898;50.520;12.152;2024-02-15T14:38:14;14.00;99.90
24802;DHT22;12898;50.520;12.152;2024-02-15T14:40:44;13.90;99.90
24802;DHT22;12898;50.520;12.152;2024-02-15T14:43:24;13.80;99.90
24802;DHT22;12898;50.520;12.152;2024-02-15T14:45:52;13.80;99.90
24802;DHT22;12898;50.520;12.152;2024-02-15T14:48:18;13.70;99.90
24802;DHT22;12898;50.520;12.152;2024-02-15T14:50:46;13.60;99.90
24802;DHT22;12898;50.520;12.152;2024-02-15T14:53:15;13.50;99.90
24802;DHT22;12898;50.520;12.152;2024-02-15T14:55:41;13.40;99.90
24802;DHT22;12898;50.520;12.152;2024-02-15T14:58:14;13.30;99.90
24802;DHT22;12898;50.520;12.152;2024-02-15T15:00:43;13.20;99.90
24802;DHT22;12898;50.520;12.152;2024-02-15T15:03:12;13.20;99.90
24802;DHT22;12898;50.520;12.152;2024-02-15T15:05:41;13.20;99.90
24802;DHT22;12898;50.520;12.152;2024-02-15T15:08:26;13.30;99.90
24802;DHT22;12898;50.520;12.152;2024-02-15T15:11:10;13.30;99.90
24802;DHT22;12898;50.520;12.152;2024-02-15T15:13:54;13.50;99.90
24802;DHT22;12898;50.520;12.152;2024-02-15T15:16:20;13.60;99.90
24802;DHT22;12898;50.520;12.152;2024-02-15T15:18:48;13.50;99.90
24802;DHT22;12898;50.520;12.152;2024-02-15T15:21:15;13.50;99.90
24802;DHT22;12898;50.520;12.152;2024-02-15T15:23:44;13.40;99.90
24802;DHT22;12898;50.520;12.152;2024-02-15T15:26:11;13.30;99.90
24802;DHT22;12898;50.520;12.152;2024-02-15T15:28:40;13.20;99.90
24802;DHT22;12898;50.520;12.152;2024-02-15T15:31:06;13.00;99.90
24802;DHT22;12898;50.520;12.152;2024-02-15T15:33:35;12.90;99.90
24802;DHT22;12898;50.520;12.152;2024-02-15T15:36:02;12.80;99.90
24802;DHT22;12898;50.520;12.152;2024-02-15T15:38:30;12.60;99.90
24802;DHT22;12898;50.520;12.152;2024-02-15T15:40:56;12.50;99.90
24802;DHT22;12898;50.520;12.152;2024-02-15T15:43:23;12.40;99.90
24802;DHT22;12898;50.520;12.152;2024-02-15T15:45:49;12.30;99.90
24802;DHT22;12898;50.520;12.152;2024-02-15T15:48:18;12.20;99.90